sensor_id;sensor_type;location;lat;lon;timestamp;pressure;altitude;pressure_sealevel;temperature;humidity
31337;BME280;22846;42.654;23.314;2023-03-19T00:02:11;95005.47;;;23.51;50.51
31337;BME280;22846;42.654;23.314;2023-03-19T00:04:37;95007.50;;;23.47;50.42
31337;BME280;22846;42.654;23.314;2023-03-19T00:07:02;95002.84;;;23.47;50.23
31337;BME280;22846;42.654;23.314;2023-03-19T00:09:28;95003.25;;;23.46;50.12
31337;BME280;22846;42.654;23.314;2023-03-19T00:11:53;95002.13;;;23.43;50.30
31337;BME280;22846;42.654;23.314;2023-03-19T00:14:19;94995.13;;;23.42;50.66
31337;BME280;22846;42.654;23.314;2023-03-19T00:16:44;94996.00;;;23.39;50.62
31337;BME280;22846;42.654;23.314;2023-03-19T00:19:10;94997.94;;;23.39;50.79
31337;BME280;22846;42.654;23.314;2023-03-19T00:21:35;94988.28;;;23.34;50.73
31337;BME280;22846;42.654;23.314;2023-03-19T00:24:01;94992.56;;;23.35;50.30
31337;BME280;22846;42.654;23.314;2023-03-19T00:26:34;94994.53;;;23.35;50.67
31337;BME280;22846;42.654;23.314;2023-03-19T00:29:00;94991.00;;;23.34;50.64
31337;BME280;22846;42.654;23.314;2023-03-19T00:31:27;94983.25;;;23.33;50.42
31337;BME280;22846;42.654;23.314;2023-03-19T00:33:55;94974.72;;;23.31;50.63
31337;BME280;22846;42.654;23.314;2023-03-19T00:36:21;94979.44;;;23.30;50.50
31337;BME280;22846;42.654;23.314;2023-03-19T00:38:47;94985.63;;;23.31;50.53
31337;BME280;22846;42.654;23.314;2023-03-19T00:41:13;94977.13;;;23.29;50.24
31337;BME280;22846;42.654;23.314;2023-03-19T00:43:39;94972.06;;;23.27;50.56
31337;BME280;22846;42.654;23.314;2023-03-19T00:46:05;94979.50;;;23.27;50.15
31337;BME280;22846;42.654;23.314;2023-03-19T00:48:31;94979.50;;;23.27;50.47
31337;BME280;22846;42.654;23.314;2023-03-19T00:51:07;94972.94;;;23.24;50.27
31337;BME280;22846;42.654;23.314;2023-03-19T00:53:38;94975.31;;;23.22;50.41
31337;BME280;22846;42.654;23.314;2023-03-19T00:56:04;94967.22;;;23.19;50.16
31337;BME280;22846;42.654;23.314;2023-03-19T00:58:31;94960.56;;;23.20;50.43
31337;BME280;22846;42.654;23.314;2023-03-19T01:00:57;94958.69;;;23.17;50.15
31337;BME280;22846;42.654;23.314;2023-03-19T01:03:22;94961.75;;;23.19;50.30
31337;BME280;22846;42.654;23.314;2023-03-19T01:05:48;94956.31;;;23.19;49.98
31337;BME280;22846;42.654;23.314;2023-03-19T01:08:15;94952.78;;;23.18;50.43
31337;BME280;22846;42.654;23.314;2023-03-19T01:10:41;94953.22;;;23.17;50.24
31337;BME280;22846;42.654;23.314;2023-03-19T01:13:06;94947.41;;;23.15;50.42
31337;BME280;22846;42.654;23.314;2023-03-19T01:15:42;94950.56;;;23.13;50.41
31337;BME280;22846;42.654;23.314;2023-03-19T01:18:09;94954.06;;;23.14;49.91
31337;BME280;22846;42.654;23.314;2023-03-19T01:20:36;94955.25;;;23.13;50.21
31337;BME280;22846;42.654;23.314;2023-03-19T01:23:03;94948.69;;;23.10;49.99
31337;BME280;22846;42.654;23.314;2023-03-19T01:25:29;94947.91;;;23.10;50.08
31337;BME280;22846;42.654;23.314;2023-03-19T01:27:55;94948.69;;;23.10;50.05
31337;BME280;22846;42.654;23.314;2023-03-19T01:30:22;94947.13;;;23.09;50.18
31337;BME280;22846;42.654;23.314;2023-03-19T01:32:47;94940.16;;;23.08;50.06
31337;BME280;22846;42.654;23.314;2023-03-19T01:35:13;94937.84;;;23.07;50.20
31337;BME280;22846;42.654;23.314;2023-03-19T01:37:38;94943.31;;;23.07;50.25
31337;BME280;22846;42.654;23.314;2023-03-19T01:40:04;94946.03;;;23.07;49.94
31337;BME280;22846;42.654;23.314;2023-03-19T01:42:31;94948.75;;;23.07;50.13
31337;BME280;22846;42.654;23.314;2023-03-19T01:44:56;94944.50;;;23.06;50.38
31337;BME280;22846;42.654;23.314;2023-03-19T01:47:38;94945.66;;;23.05;49.89
31337;BME280;22846;42.654;23.314;2023-03-19T01:50:05;94949.59;;;23.04;50.14
31337;BME280;22846;42.654;23.314;2023-03-19T01:52:33;94950.41;;;23.01;50.01
31337;BME280;22846;42.654;23.314;2023-03-19T01:55:02;94954.28;;;23.04;49.78
31337;BME280;22846;42.654;23.314;2023-03-19T01:57:29;94953.53;;;23.00;49.96
31337;BME280;22846;42.654;23.314;2023-03-19T01:59:59;94948.53;;;22.98;49.88
31337;BME280;22846;42.654;23.314;2023-03-19T02:02:30;94952.44;;;22.97;49.84
31337;BME280;22846;42.654;23.314;2023-03-19T02:05:00;94946.63;;;22.95;49.94
31337;BME280;22846;42.654;23.314;2023-03-19T02:07:31;94947.41;;;22.96;49.64
31337;BME280;22846;42.654;23.314;2023-03-19T02:10:00;94953.97;;;22.98;50.15
31337;BME280;22846;42.654;23.314;2023-03-19T02:12:26;94937.47;;;22.86;50.07
31337;BME280;22846;42.654;23.314;2023-03-19T02:14:52;94951.31;;;22.95;49.71
31337;BME280;22846;42.654;23.314;2023-03-19T02:17:19;94957.13;;;22.97;49.88
31337;BME280;22846;42.654;23.314;2023-03-19T02:19:48;94957.88;;;22.97;49.90
31337;BME280;22846;42.654;23.314;2023-03-19T02:22:20;94945.13;;;22.94;49.91
31337;BME280;22846;42.654;23.314;2023-03-19T02:25:23;94926.28;;;22.80;49.68
31337;BME280;22846;42.654;23.314;2023-03-19T02:27:46;94947.84;;;22.94;49.67
31337;BME280;22846;42.654;23.314;2023-03-19T02:30:25;94945.94;;;22.91;49.67
31337;BME280;22846;42.654;23.314;2023-03-19T02:32:51;94950.97;;;22.93;49.73
31337;BME280;22846;42.654;23.314;2023-03-19T02:35:16;94948.22;;;22.93;49.83
31337;BME280;22846;42.654;23.314;2023-03-19T02:37:42;94955.31;;;22.90;49.47
31337;BME280;22846;42.654;23.314;2023-03-19T02:40:23;94955.31;;;22.90;49.85
31337;BME280;22846;42.654;23.314;2023-03-19T02:42:50;94960.00;;;22.90;49.79
31337;BME280;22846;42.654;23.314;2023-03-19T02:45:15;94963.13;;;22.88;49.42
31337;BME280;22846;42.654;23.314;2023-03-19T02:47:41;94960.03;;;22.86;49.57
31337;BME280;22846;42.654;23.314;2023-03-19T02:50:07;94960.03;;;22.86;49.68
31337;BME280;22846;42.654;23.314;2023-03-19T02:52:33;94964.31;;;22.87;49.66
31337;BME280;22846;42.654;23.314;2023-03-19T02:54:58;94958.09;;;22.87;49.86
31337;BME280;22846;42.654;23.314;2023-03-19T02:57:24;94958.53;;;22.85;49.70
31337;BME280;22846;42.654;23.314;2023-03-19T02:59:50;94956.19;;;22.84;49.50
31337;BME280;22846;42.654;23.314;2023-03-19T03:02:15;94954.72;;;22.79;49.86
31337;BME280;22846;42.654;23.314;2023-03-19T03:04:41;94956.19;;;22.84;49.50
31337;BME280;22846;42.654;23.314;2023-03-19T03:07:07;94969.44;;;22.85;49.75
31337;BME280;22846;42.654;23.314;2023-03-19T03:09:32;94958.56;;;22.82;49.50
31337;BME280;22846;42.654;23.314;2023-03-19T03:11:58;94972.53;;;22.84;49.40
31337;BME280;22846;42.654;23.314;2023-03-19T03:14:23;94971.78;;;22.83;49.71
31337;BME280;22846;42.654;23.314;2023-03-19T03:16:49;94975.69;;;22.82;49.57
31337;BME280;22846;42.654;23.314;2023-03-19T03:19:15;94969.91;;;22.80;49.53
31337;BME280;22846;42.654;23.314;2023-03-19T03:21:41;94978.44;;;22.82;49.75
31337;BME280;22846;42.654;23.314;2023-03-19T03:24:07;94971.06;;;22.79;49.76
31337;BME280;22846;42.654;23.314;2023-03-19T03:26:33;94973.44;;;22.77;49.34
31337;BME280;22846;42.654;23.314;2023-03-19T03:29:00;94983.50;;;22.80;49.69
31337;BME280;22846;42.654;23.314;2023-03-19T03:31:25;94985.50;;;22.80;49.52
31337;BME280;22846;42.654;23.314;2023-03-19T03:33:51;94985.50;;;22.80;49.17
31337;BME280;22846;42.654;23.314;2023-03-19T03:36:16;94983.94;;;22.79;49.58
31337;BME280;22846;42.654;23.314;2023-03-19T03:38:42;94987.84;;;22.78;49.21
31337;BME280;22846;42.654;23.314;2023-03-19T03:41:08;94971.22;;;22.72;49.40
31337;BME280;22846;42.654;23.314;2023-03-19T03:43:34;94985.13;;;22.78;49.23
31337;BME280;22846;42.654;23.314;2023-03-19T03:45:59;94979.31;;;22.76;49.50
31337;BME280;22846;42.654;23.314;2023-03-19T03:48:25;94988.28;;;22.76;49.36
31337;BME280;22846;42.654;23.314;2023-03-19T03:50:50;94992.94;;;22.76;49.52
31337;BME280;22846;42.654;23.314;2023-03-19T03:53:16;94992.94;;;22.76;49.29
31337;BME280;22846;42.654;23.314;2023-03-19T03:55:41;94997.63;;;22.75;49.57
31337;BME280;22846;42.654;23.314;2023-03-19T03:58:07;94998.03;;;22.74;49.05
31337;BME280;22846;42.654;23.314;2023-03-19T04:00:33;94996.84;;;22.75;49.14
31337;BME280;22846;42.654;23.314;2023-03-19T04:02:59;94996.53;;;22.73;49.47
31337;BME280;22846;42.654;23.314;2023-03-19T04:05:24;94991.84;;;22.73;49.45
31337;BME280;22846;42.654;23.314;2023-03-19T04:07:50;94991.06;;;22.73;49.32
31337;BME280;22846;42.654;23.314;2023-03-19T04:10:16;94997.28;;;22.73;49.35
31337;BME280;22846;42.654;23.314;2023-03-19T04:12:43;94984.47;;;22.70;48.92
31337;BME280;22846;42.654;23.314;2023-03-19T04:15:10;94981.75;;;22.70;49.40
31337;BME280;22846;42.654;23.314;2023-03-19T04:17:36;94986.03;;;22.71;49.23
31337;BME280;22846;42.654;23.314;2023-03-19T04:20:03;94991.91;;;22.70;49.11
31337;BME280;22846;42.654;23.314;2023-03-19T04:22:29;94986.44;;;22.70;49.17
31337;BME280;22846;42.654;23.314;2023-03-19T04:24:55;94979.53;;;22.65;49.38
31337;BME280;22846;42.654;23.314;2023-03-19T04:27:20;94995.38;;;22.70;48.93
31337;BME280;22846;42.654;23.314;2023-03-19T04:29:46;94979.16;;;22.63;49.36
31337;BME280;22846;42.654;23.314;2023-03-19T04:32:11;94993.09;;;22.69;49.27
31337;BME280;22846;42.654;23.314;2023-03-19T04:34:37;94994.25;;;22.68;49.06
31337;BME280;22846;42.654;23.314;2023-03-19T04:37:02;95002.44;;;22.68;48.92
31337;BME280;22846;42.654;23.314;2023-03-19T04:39:28;94995.03;;;22.68;49.16
31337;BME280;22846;42.654;23.314;2023-03-19T04:41:53;94996.28;;;22.64;48.79
31337;BME280;22846;42.654;23.314;2023-03-19T04:44:19;95008.66;;;22.68;48.90
31337;BME280;22846;42.654;23.314;2023-03-19T04:46:45;95007.13;;;22.67;48.81
31337;BME280;22846;42.654;23.314;2023-03-19T04:49:11;95001.75;;;22.64;48.88
31337;BME280;22846;42.654;23.314;2023-03-19T04:51:37;95003.25;;;22.65;49.14
31337;BME280;22846;42.654;23.314;2023-03-19T04:54:02;94994.75;;;22.63;48.86
31337;BME280;22846;42.654;23.314;2023-03-19T04:56:28;95000.91;;;22.67;48.97
31337;BME280;22846;42.654;23.314;2023-03-19T04:58:53;94995.88;;;22.65;49.05
31337;BME280;22846;42.654;23.314;2023-03-19T05:01:18;94995.88;;;22.65;49.05
31337;BME280;22846;42.654;23.314;2023-03-19T05:03:44;94995.09;;;22.65;49.01
31337;BME280;22846;42.654;23.314;2023-03-19T05:06:10;94999.34;;;22.66;49.05
31337;BME280;22846;42.654;23.314;2023-03-19T05:08:36;94989.31;;;22.63;49.05
31337;BME280;22846;42.654;23.314;2023-03-19T05:11:01;94998.94;;;22.67;49.22
31337;BME280;22846;42.654;23.314;2023-03-19T05:13:27;95000.13;;;22.66;49.01
31337;BME280;22846;42.654;23.314;2023-03-19T05:15:53;95004.72;;;22.69;49.13
31337;BME280;22846;42.654;23.314;2023-03-19T05:18:20;94999.72;;;22.68;49.24
31337;BME280;22846;42.654;23.314;2023-03-19T05:20:45;94989.63;;;22.65;49.31
31337;BME280;22846;42.654;23.314;2023-03-19T05:23:11;95000.00;;;22.73;49.02
31337;BME280;22846;42.654;23.314;2023-03-19T05:25:38;94981.88;;;22.63;48.97
31337;BME280;22846;42.654;23.314;2023-03-19T05:28:05;94999.19;;;22.76;49.18
31337;BME280;22846;42.654;23.314;2023-03-19T05:30:32;94999.94;;;22.77;48.81
31337;BME280;22846;42.654;23.314;2023-03-19T05:32:57;95001.06;;;22.79;49.17
31337;BME280;22846;42.654;23.314;2023-03-19T05:35:24;95006.84;;;22.81;48.85
31337;BME280;22846;42.654;23.314;2023-03-19T05:37:50;95004.88;;;22.82;48.91
31337;BME280;22846;42.654;23.314;2023-03-19T05:40:15;95010.31;;;22.85;48.90
31337;BME280;22846;42.654;23.314;2023-03-19T05:42:41;95007.16;;;22.87;48.76
31337;BME280;22846;42.654;23.314;2023-03-19T05:45:07;95007.91;;;22.87;48.61
31337;BME280;22846;42.654;23.314;2023-03-19T05:47:32;95010.22;;;22.89;48.58
31337;BME280;22846;42.654;23.314;2023-03-19T05:49:59;95017.56;;;22.92;48.56
31337;BME280;22846;42.654;23.314;2023-03-19T05:52:25;94999.44;;;22.82;48.53
31337;BME280;22846;42.654;23.314;2023-03-19T05:54:50;95017.47;;;22.95;48.80
31337;BME280;22846;42.654;23.314;2023-03-19T05:57:16;95019.03;;;22.96;48.65
31337;BME280;22846;42.654;23.314;2023-03-19T05:59:42;95014.72;;;22.99;48.94
31337;BME280;22846;42.654;23.314;2023-03-19T06:02:07;95013.50;;;23.00;48.74
31337;BME280;22846;42.654;23.314;2023-03-19T06:04:33;95013.94;;;22.98;48.79
31337;BME280;22846;42.654;23.314;2023-03-19T06:06:58;95012.69;;;23.03;48.79
31337;BME280;22846;42.654;23.314;2023-03-19T06:09:24;95001.03;;;23.02;48.76
31337;BME280;22846;42.654;23.314;2023-03-19T06:11:49;95004.09;;;23.04;48.27
31337;BME280;22846;42.654;23.314;2023-03-19T06:14:14;95011.44;;;23.07;48.31
31337;BME280;22846;42.654;23.314;2023-03-19T06:16:40;95009.84;;;23.09;48.34
31337;BME280;22846;42.654;23.314;2023-03-19T06:19:05;95012.16;;;23.11;48.17
31337;BME280;22846;42.654;23.314;2023-03-19T06:21:31;95006.34;;;23.09;48.29
31337;BME280;22846;42.654;23.314;2023-03-19T06:23:57;95014.03;;;23.14;47.87
31337;BME280;22846;42.654;23.314;2023-03-19T06:26:23;95005.44;;;23.15;47.78
31337;BME280;22846;42.654;23.314;2023-03-19T06:28:48;95011.66;;;23.16;47.03
31337;BME280;22846;42.654;23.314;2023-03-19T06:31:14;95017.81;;;23.20;47.11
31337;BME280;22846;42.654;23.314;2023-03-19T06:33:39;95018.16;;;23.22;47.63
31337;BME280;22846;42.654;23.314;2023-03-19T06:36:06;95024.31;;;23.26;47.82
31337;BME280;22846;42.654;23.314;2023-03-19T06:38:32;95026.63;;;23.27;47.84
31337;BME280;22846;42.654;23.314;2023-03-19T06:40:57;95026.22;;;23.29;47.88
31337;BME280;22846;42.654;23.314;2023-03-19T06:43:23;95018.09;;;23.25;47.82
31337;BME280;22846;42.654;23.314;2023-03-19T06:45:48;95026.16;;;23.32;48.31
31337;BME280;22846;42.654;23.314;2023-03-19T06:48:14;95033.91;;;23.34;47.91
31337;BME280;22846;42.654;23.314;2023-03-19T06:50:40;95035.44;;;23.35;48.05
31337;BME280;22846;42.654;23.314;2023-03-19T06:53:05;95040.03;;;23.38;48.26
31337;BME280;22846;42.654;23.314;2023-03-19T06:55:32;95045.50;;;23.38;48.42
31337;BME280;22846;42.654;23.314;2023-03-19T06:57:57;95043.53;;;23.38;48.51
31337;BME280;22846;42.654;23.314;2023-03-19T07:00:23;95046.19;;;23.42;48.17
31337;BME280;22846;42.654;23.314;2023-03-19T07:02:48;95046.56;;;23.44;48.46
31337;BME280;22846;42.654;23.314;2023-03-19T07:05:14;95040.66;;;23.45;48.46
31337;BME280;22846;42.654;23.314;2023-03-19T07:07:40;95044.50;;;23.48;47.98
31337;BME280;22846;42.654;23.314;2023-03-19T07:10:06;95035.22;;;23.45;47.99
31337;BME280;22846;42.654;23.314;2023-03-19T07:12:32;95046.84;;;23.49;48.28
31337;BME280;22846;42.654;23.314;2023-03-19T07:14:58;95026.75;;;23.40;48.05
31337;BME280;22846;42.654;23.314;2023-03-19T07:17:24;95043.31;;;23.49;48.23
31337;BME280;22846;42.654;23.314;2023-03-19T07:19:49;95046.41;;;23.51;47.91
31337;BME280;22846;42.654;23.314;2023-03-19T07:22:15;95039.41;;;23.50;48.39
31337;BME280;22846;42.654;23.314;2023-03-19T07:24:41;95037.38;;;23.54;49.13
31337;BME280;22846;42.654;23.314;2023-03-19T07:27:06;95040.94;;;23.51;44.40
31337;BME280;22846;42.654;23.314;2023-03-19T07:29:32;95028.94;;;23.48;47.27
31337;BME280;22846;42.654;23.314;2023-03-19T07:31:57;95022.00;;;23.44;41.24
31337;BME280;22846;42.654;23.314;2023-03-19T07:34:23;95033.31;;;23.42;40.17
31337;BME280;22846;42.654;23.314;2023-03-19T07:36:48;95033.59;;;23.48;43.27
31337;BME280;22846;42.654;23.314;2023-03-19T07:39:13;95032.56;;;23.42;43.45
31337;BME280;22846;42.654;23.314;2023-03-19T07:41:39;95027.66;;;23.33;31.79
31337;BME280;22846;42.654;23.314;2023-03-19T07:44:04;95033.72;;;23.02;24.16
31337;BME280;22846;42.654;23.314;2023-03-19T07:46:30;95034.19;;;22.55;25.80
31337;BME280;22846;42.654;23.314;2023-03-19T07:48:56;95035.88;;;22.23;29.87
31337;BME280;22846;42.654;23.314;2023-03-19T07:51:21;95041.44;;;22.16;34.77
31337;BME280;22846;42.654;23.314;2023-03-19T07:53:47;95039.09;;;22.14;32.33
31337;BME280;22846;42.654;23.314;2023-03-19T07:56:12;95043.66;;;22.21;37.67
31337;BME280;22846;42.654;23.314;2023-03-19T07:58:38;95047.06;;;22.28;39.35
31337;BME280;22846;42.654;23.314;2023-03-19T08:01:03;95039.56;;;22.35;39.77
31337;BME280;22846;42.654;23.314;2023-03-19T08:03:28;95030.94;;;22.40;40.03
31337;BME280;22846;42.654;23.314;2023-03-19T08:05:54;95030.00;;;22.50;40.26
31337;BME280;22846;42.654;23.314;2023-03-19T08:08:19;95036.72;;;22.65;40.28
31337;BME280;22846;42.654;23.314;2023-03-19T08:10:45;95030.41;;;22.72;40.43
31337;BME280;22846;42.654;23.314;2023-03-19T08:13:12;95029.97;;;22.73;39.64
31337;BME280;22846;42.654;23.314;2023-03-19T08:15:38;95037.19;;;22.83;40.65
31337;BME280;22846;42.654;23.314;2023-03-19T08:18:04;95026.97;;;22.87;40.29
31337;BME280;22846;42.654;23.314;2023-03-19T08:20:31;95037.78;;;22.94;40.48
31337;BME280;22846;42.654;23.314;2023-03-19T08:22:56;95037.28;;;22.99;40.50
31337;BME280;22846;42.654;23.314;2023-03-19T08:25:23;95026.72;;;23.01;40.81
31337;BME280;22846;42.654;23.314;2023-03-19T08:27:49;95033.63;;;23.09;41.16
31337;BME280;22846;42.654;23.314;2023-03-19T08:30:15;95030.47;;;23.10;40.90
31337;BME280;22846;42.654;23.314;2023-03-19T08:32:41;95036.56;;;23.18;41.14
31337;BME280;22846;42.654;23.314;2023-03-19T08:35:09;95030.69;;;23.19;41.32
31337;BME280;22846;42.654;23.314;2023-03-19T08:37:35;95031.94;;;23.15;36.21
31337;BME280;22846;42.654;23.314;2023-03-19T08:40:00;95034.81;;;23.08;31.59
31337;BME280;22846;42.654;23.314;2023-03-19T08:42:26;95029.53;;;22.98;29.06
31337;BME280;22846;42.654;23.314;2023-03-19T08:44:52;95011.19;;;22.79;27.43
31337;BME280;22846;42.654;23.314;2023-03-19T08:47:17;95013.25;;;22.71;27.09
31337;BME280;22846;42.654;23.314;2023-03-19T08:49:43;95020.09;;;22.60;27.49
31337;BME280;22846;42.654;23.314;2023-03-19T08:52:08;95015.59;;;22.50;26.25
31337;BME280;22846;42.654;23.314;2023-03-19T08:54:34;95015.41;;;22.37;26.10
31337;BME280;22846;42.654;23.314;2023-03-19T08:57:00;95013.94;;;22.33;32.08
31337;BME280;22846;42.654;23.314;2023-03-19T08:59:26;95011.22;;;22.33;34.66
31337;BME280;22846;42.654;23.314;2023-03-19T09:01:52;94992.59;;;22.31;35.30
31337;BME280;22846;42.654;23.314;2023-03-19T09:04:19;94999.75;;;22.45;35.88
31337;BME280;22846;42.654;23.314;2023-03-19T09:06:45;95003.00;;;22.59;36.52
31337;BME280;22846;42.654;23.314;2023-03-19T09:09:10;94997.06;;;22.64;36.59
31337;BME280;22846;42.654;23.314;2023-03-19T09:11:36;94998.88;;;22.71;35.34
31337;BME280;22846;42.654;23.314;2023-03-19T09:14:01;94992.19;;;22.75;36.91
31337;BME280;22846;42.654;23.314;2023-03-19T09:16:27;94991.06;;;22.73;37.17
31337;BME280;22846;42.654;23.314;2023-03-19T09:18:52;94993.44;;;22.90;37.47
31337;BME280;22846;42.654;23.314;2023-03-19T09:21:17;94987.94;;;22.94;31.50
31337;BME280;22846;42.654;23.314;2023-03-19T09:23:43;94990.59;;;22.97;29.43
31337;BME280;22846;42.654;23.314;2023-03-19T09:26:08;94986.38;;;22.93;27.60
31337;BME280;22846;42.654;23.314;2023-03-19T09:28:34;94984.56;;;22.86;26.59
31337;BME280;22846;42.654;23.314;2023-03-19T09:31:00;94979.38;;;22.72;29.17
31337;BME280;22846;42.654;23.314;2023-03-19T09:33:31;94985.94;;;22.75;33.63
31337;BME280;22846;42.654;23.314;2023-03-19T09:35:57;94988.59;;;22.78;35.06
31337;BME280;22846;42.654;23.314;2023-03-19T09:38:22;94980.38;;;22.82;37.09
31337;BME280;22846;42.654;23.314;2023-03-19T09:41:00;94977.94;;;22.87;38.77
31337;BME280;22846;42.654;23.314;2023-03-19T09:43:56;94972.69;;;22.96;38.18
31337;BME280;22846;42.654;23.314;2023-03-19T09:46:42;94974.94;;;23.01;37.30
31337;BME280;22846;42.654;23.314;2023-03-19T09:49:26;94977.66;;;23.01;36.02
31337;BME280;22846;42.654;23.314;2023-03-19T09:54:31;94974.91;;;23.05;35.44
31337;BME280;22846;42.654;23.314;2023-03-19T09:56:57;94971.31;;;23.08;36.64
31337;BME280;22846;42.654;23.314;2023-03-19T09:59:25;94961.94;;;23.08;37.05
31337;BME280;22846;42.654;23.314;2023-03-19T10:17:55;94951.13;;;23.24;38.99
31337;BME280;22846;42.654;23.314;2023-03-19T10:25:31;94928.88;;;23.26;39.55
31337;BME280;22846;42.654;23.314;2023-03-19T10:28:14;94911.28;;;23.11;40.09
31337;BME280;22846;42.654;23.314;2023-03-19T10:30:40;94921.81;;;23.28;39.79
31337;BME280;22846;42.654;23.314;2023-03-19T10:35:43;94914.81;;;23.27;39.88
31337;BME280;22846;42.654;23.314;2023-03-19T10:38:23;94909.38;;;23.27;40.01
31337;BME280;22846;42.654;23.314;2023-03-19T10:43:22;94905.38;;;23.32;40.62
31337;BME280;22846;42.654;23.314;2023-03-19T10:45:49;94896.00;;;23.33;40.82
31337;BME280;22846;42.654;23.314;2023-03-19T10:48:16;94896.00;;;23.33;40.51
31337;BME280;22846;42.654;23.314;2023-03-19T10:50:57;94885.84;;;23.33;40.58
31337;BME280;22846;42.654;23.314;2023-03-19T10:53:36;94882.72;;;23.35;40.86
31337;BME280;22846;42.654;23.314;2023-03-19T10:56:03;94878.00;;;23.35;40.94
31337;BME280;22846;42.654;23.314;2023-03-19T10:58:31;94880.00;;;23.35;40.86
31337;BME280;22846;42.654;23.314;2023-03-19T11:01:05;94878.81;;;23.36;40.99
31337;BME280;22846;42.654;23.314;2023-03-19T11:03:32;94868.22;;;23.38;41.02
31337;BME280;22846;42.654;23.314;2023-03-19T11:06:18;94857.75;;;23.36;41.54
31337;BME280;22846;42.654;23.314;2023-03-19T11:14:19;94852.63;;;23.38;41.26
31337;BME280;22846;42.654;23.314;2023-03-19T11:19:27;94825.94;;;23.30;41.66
31337;BME280;22846;42.654;23.314;2023-03-19T11:24:30;94828.00;;;23.42;41.41
31337;BME280;22846;42.654;23.314;2023-03-19T11:26:55;94826.47;;;23.41;41.66
31337;BME280;22846;42.654;23.314;2023-03-19T11:29:22;94835.75;;;23.43;41.66
31337;BME280;22846;42.654;23.314;2023-03-19T11:31:56;94827.56;;;23.43;41.42
31337;BME280;22846;42.654;23.314;2023-03-19T11:38:00;94800.03;;;23.38;41.71
31337;BME280;22846;42.654;23.314;2023-03-19T11:49:08;94787.69;;;23.49;41.74
31337;BME280;22846;42.654;23.314;2023-03-19T11:52:04;94791.19;;;23.50;42.07
31337;BME280;22846;42.654;23.314;2023-03-19T11:55:02;94788.88;;;23.48;41.86
31337;BME280;22846;42.654;23.314;2023-03-19T12:00:10;94787.69;;;23.49;41.80
31337;BME280;22846;42.654;23.314;2023-03-19T12:08:22;94782.50;;;23.55;41.95
31337;BME280;22846;42.654;23.314;2023-03-19T12:16:54;94764.50;;;23.57;42.25
31337;BME280;22846;42.654;23.314;2023-03-19T12:19:56;94756.63;;;23.59;42.29
31337;BME280;22846;42.654;23.314;2023-03-19T12:23:31;94753.91;;;23.59;42.29
31337;BME280;22846;42.654;23.314;2023-03-19T12:28:23;94755.78;;;23.62;42.02
31337;BME280;22846;42.654;23.314;2023-03-19T12:31:27;94755.78;;;23.62;42.60
31337;BME280;22846;42.654;23.314;2023-03-19T12:36:48;94745.22;;;23.64;42.45
31337;BME280;22846;42.654;23.314;2023-03-19T12:39:19;94739.31;;;23.66;42.22
31337;BME280;22846;42.654;23.314;2023-03-19T12:41:47;94729.59;;;23.65;42.13
31337;BME280;22846;42.654;23.314;2023-03-19T12:44:47;94734.56;;;23.70;42.00
31337;BME280;22846;42.654;23.314;2023-03-19T12:47:08;94738.81;;;23.71;42.31
31337;BME280;22846;42.654;23.314;2023-03-19T12:49:50;94739.13;;;23.73;42.29
31337;BME280;22846;42.654;23.314;2023-03-19T12:52:24;94729.75;;;23.74;42.38
31337;BME280;22846;42.654;23.314;2023-03-19T12:55:02;94730.56;;;23.74;41.91
31337;BME280;22846;42.654;23.314;2023-03-19T12:57:37;94725.44;;;23.76;42.18
31337;BME280;22846;42.654;23.314;2023-03-19T13:05:15;94719.09;;;23.79;42.06
31337;BME280;22846;42.654;23.314;2023-03-19T13:10:46;94719.34;;;23.85;41.96
31337;BME280;22846;42.654;23.314;2023-03-19T13:13:27;94717.72;;;23.87;42.25
31337;BME280;22846;42.654;23.314;2023-03-19T13:15:57;94716.97;;;23.87;42.10
31337;BME280;22846;42.654;23.314;2023-03-19T13:21:22;94706.69;;;23.91;42.22
31337;BME280;22846;42.654;23.314;2023-03-19T13:23:59;94699.28;;;23.91;42.11
31337;BME280;22846;42.654;23.314;2023-03-19T13:26:26;94704.75;;;23.91;41.86
31337;BME280;22846;42.654;23.314;2023-03-19T13:29:08;94696.13;;;23.92;41.99
31337;BME280;22846;42.654;23.314;2023-03-19T13:31:35;94700.72;;;23.95;42.20
31337;BME280;22846;42.654;23.314;2023-03-19T13:34:25;94693.28;;;23.96;41.70
31337;BME280;22846;42.654;23.314;2023-03-19T13:39:27;94691.66;;;23.98;42.16
31337;BME280;22846;42.654;23.314;2023-03-19T13:42:09;94695.16;;;23.99;42.10
31337;BME280;22846;42.654;23.314;2023-03-19T13:55:45;94687.22;;;24.04;42.05
31337;BME280;22846;42.654;23.314;2023-03-19T13:58:25;94682.09;;;24.06;41.92
31337;BME280;22846;42.654;23.314;2023-03-19T14:03:55;94672.25;;;24.09;42.27
31337;BME280;22846;42.654;23.314;2023-03-19T14:09:05;94676.44;;;24.13;41.91
31337;BME280;22846;42.654;23.314;2023-03-19T14:11:33;94670.19;;;24.13;42.02
31337;BME280;22846;42.654;23.314;2023-03-19T14:14:05;94675.97;;;24.15;42.10
31337;BME280;22846;42.654;23.314;2023-03-19T14:16:36;94675.53;;;24.16;42.22
31337;BME280;22846;42.654;23.314;2023-03-19T14:19:09;94670.41;;;24.18;42.06
31337;BME280;22846;42.654;23.314;2023-03-19T14:22:06;94658.28;;;24.19;42.28
31337;BME280;22846;42.654;23.314;2023-03-19T14:27:11;94652.09;;;24.19;42.33
31337;BME280;22846;42.654;23.314;2023-03-19T14:29:42;94663.31;;;24.21;41.79
31337;BME280;22846;42.654;23.314;2023-03-19T14:32:14;94657.97;;;24.17;40.82
31337;BME280;22846;42.654;23.314;2023-03-19T14:34:42;94662.22;;;24.18;39.80
31337;BME280;22846;42.654;23.314;2023-03-19T14:37:33;94653.69;;;24.16;40.82
31337;BME280;22846;42.654;23.314;2023-03-19T14:40:16;94662.34;;;24.15;41.57
31337;BME280;22846;42.654;23.314;2023-03-19T14:45:45;94659.94;;;24.17;41.95